sensor_id;sensor_type;location;lat;lon;timestamp;P1;durP1;ratioP1;P2;durP2;ratioP2
819;SDS011;392;48.838;2.322;2023-04-24T00:02:02;5.13;;;4.73;;
819;SDS011;392;48.838;2.322;2023-04-24T00:04:32;4.73;;;4.40;;
819;SDS011;392;48.838;2.322;2023-04-24T00:06:59;4.23;;;3.93;;
819;SDS011;392;48.838;2.322;2023-04-24T00:09:26;4.60;;;4.30;;
819;SDS011;392;48.838;2.322;2023-04-24T00:11:55;4.43;;;4.13;;
819;SDS011;392;48.838;2.322;2023-04-24T00:14:22;6.53;;;4.10;;
819;SDS011;392;48.838;2.322;2023-04-24T00:16:50;4.87;;;4.47;;
819;SDS011;392;48.838;2.322;2023-04-24T00:19:17;4.67;;;4.17;;
819;SDS011;392;48.838;2.322;2023-04-24T00:21:46;4.90;;;4.00;;
819;SDS011;392;48.838;2.322;2023-04-24T00:24:15;4.50;;;4.20;;
819;SDS011;392;48.838;2.322;2023-04-24T00:26:42;4.60;;;4.30;;
819;SDS011;392;48.838;2.322;2023-04-24T00:29:11;4.50;;;4.17;;
819;SDS011;392;48.838;2.322;2023-04-24T00:31:39;4.70;;;4.40;;
819;SDS011;392;48.838;2.322;2023-04-24T00:34:06;5.13;;;4.73;;
819;SDS011;392;48.838;2.322;2023-04-24T00:36:35;5.10;;;4.70;;
819;SDS011;392;48.838;2.322;2023-04-24T00:39:03;4.70;;;4.30;;
819;SDS011;392;48.838;2.322;2023-04-24T00:41:30;4.93;;;4.53;;
819;SDS011;392;48.838;2.322;2023-04-24T00:43:57;3.73;;;3.43;;
819;SDS011;392;48.838;2.322;2023-04-24T00:46:26;6.37;;;4.13;;
819;SDS011;392;48.838;2.322;2023-04-24T00:48:54;3.50;;;3.20;;
819;SDS011;392;48.838;2.322;2023-04-24T00:51:23;6.57;;;3.80;;
819;SDS011;392;48.838;2.322;2023-04-24T00:53:50;4.17;;;3.93;;
819;SDS011;392;48.838;2.322;2023-04-24T00:56:18;3.50;;;3.20;;
819;SDS011;392;48.838;2.322;2023-04-24T00:58:46;5.17;;;3.70;;
819;SDS011;392;48.838;2.322;2023-04-24T01:01:14;4.20;;;3.90;;
819;SDS011;392;48.838;2.322;2023-04-24T01:03:43;4.87;;;4.07;;
819;SDS011;392;48.838;2.322;2023-04-24T01:06:10;4.67;;;4.37;;
819;SDS011;392;48.838;2.322;2023-04-24T01:08:39;4.73;;;4.33;;
819;SDS011;392;48.838;2.322;2023-04-24T01:11:07;4.30;;;3.90;;
819;SDS011;392;48.838;2.322;2023-04-24T01:13:35;4.20;;;3.90;;
819;SDS011;392;48.838;2.322;2023-04-24T01:16:02;3.97;;;3.67;;
819;SDS011;392;48.838;2.322;2023-04-24T01:18:30;4.60;;;4.27;;
819;SDS011;392;48.838;2.322;2023-04-24T01:20:59;4.60;;;4.20;;
819;SDS011;392;48.838;2.322;2023-04-24T01:23:32;4.60;;;3.53;;
819;SDS011;392;48.838;2.322;2023-04-24T01:26:00;3.90;;;3.60;;
819;SDS011;392;48.838;2.322;2023-04-24T01:28:27;3.90;;;3.60;;
819;SDS011;392;48.838;2.322;2023-04-24T01:30:55;4.57;;;3.97;;
819;SDS011;392;48.838;2.322;2023-04-24T01:33:22;4.20;;;3.80;;
819;SDS011;392;48.838;2.322;2023-04-24T01:35:50;3.40;;;3.10;;
819;SDS011;392;48.838;2.322;2023-04-24T01:38:17;5.10;;;3.80;;
819;SDS011;392;48.838;2.322;2023-04-24T01:40:46;6.40;;;4.00;;
819;SDS011;392;48.838;2.322;2023-04-24T01:43:13;3.93;;;3.60;;
819;SDS011;392;48.838;2.322;2023-04-24T01:45:41;5.50;;;4.03;;
819;SDS011;392;48.838;2.322;2023-04-24T01:48:08;7.80;;;4.00;;
819;SDS011;392;48.838;2.322;2023-04-24T01:50:36;4.23;;;3.90;;
819;SDS011;392;48.838;2.322;2023-04-24T01:53:03;6.40;;;4.13;;
819;SDS011;392;48.838;2.322;2023-04-24T01:55:30;3.70;;;3.40;;
819;SDS011;392;48.838;2.322;2023-04-24T01:57:59;3.73;;;3.53;;
819;SDS011;392;48.838;2.322;2023-04-24T02:00:28;4.20;;;3.90;;
819;SDS011;392;48.838;2.322;2023-04-24T02:02:55;7.27;;;4.00;;
819;SDS011;392;48.838;2.322;2023-04-24T02:05:25;4.63;;;4.23;;
819;SDS011;392;48.838;2.322;2023-04-24T02:07:52;4.00;;;3.80;;
819;SDS011;392;48.838;2.322;2023-04-24T02:10:19;6.13;;;4.10;;
819;SDS011;392;48.838;2.322;2023-04-24T02:12:47;4.70;;;4.30;;
819;SDS011;392;48.838;2.322;2023-04-24T02:15:16;4.10;;;3.80;;
819;SDS011;392;48.838;2.322;2023-04-24T02:17:43;6.43;;;3.70;;
819;SDS011;392;48.838;2.322;2023-04-24T02:20:10;4.37;;;3.97;;
819;SDS011;392;48.838;2.322;2023-04-24T02:22:38;3.70;;;3.40;;
819;SDS011;392;48.838;2.322;2023-04-24T02:25:05;5.10;;;3.60;;
819;SDS011;392;48.838;2.322;2023-04-24T02:27:33;4.80;;;3.80;;
819;SDS011;392;48.838;2.322;2023-04-24T02:30:04;4.53;;;3.87;;
819;SDS011;392;48.838;2.322;2023-04-24T02:32:35;3.53;;;3.13;;
819;SDS011;392;48.838;2.322;2023-04-24T02:35:02;4.00;;;3.70;;
819;SDS011;392;48.838;2.322;2023-04-24T02:37:31;3.90;;;3.53;;
819;SDS011;392;48.838;2.322;2023-04-24T02:39:58;4.17;;;3.73;;
819;SDS011;392;48.838;2.322;2023-04-24T02:42:26;4.67;;;3.90;;
819;SDS011;392;48.838;2.322;2023-04-24T02:44:53;4.07;;;3.73;;
819;SDS011;392;48.838;2.322;2023-04-24T02:47:20;3.93;;;3.63;;
819;SDS011;392;48.838;2.322;2023-04-24T02:49:49;4.33;;;3.93;;
819;SDS011;392;48.838;2.322;2023-04-24T02:52:17;6.03;;;4.30;;
819;SDS011;392;48.838;2.322;2023-04-24T02:54:44;3.93;;;3.40;;
819;SDS011;392;48.838;2.322;2023-04-24T02:57:11;3.83;;;3.53;;
819;SDS011;392;48.838;2.322;2023-04-24T02:59:41;4.23;;;3.93;;
819;SDS011;392;48.838;2.322;2023-04-24T03:02:08;3.83;;;3.53;;
819;SDS011;392;48.838;2.322;2023-04-24T03:04:35;4.37;;;4.03;;
819;SDS011;392;48.838;2.322;2023-04-24T03:07:04;3.73;;;3.43;;
819;SDS011;392;48.838;2.322;2023-04-24T03:09:32;4.10;;;3.80;;
819;SDS011;392;48.838;2.322;2023-04-24T03:11:59;4.10;;;3.70;;
819;SDS011;392;48.838;2.322;2023-04-24T03:14:26;6.40;;;3.90;;
819;SDS011;392;48.838;2.322;2023-04-24T03:16:56;3.77;;;3.50;;
819;SDS011;392;48.838;2.322;2023-04-24T03:19:23;4.37;;;3.40;;
819;SDS011;392;48.838;2.322;2023-04-24T03:21:58;4.10;;;3.80;;
819;SDS011;392;48.838;2.322;2023-04-24T03:24:30;4.17;;;3.63;;
819;SDS011;392;48.838;2.322;2023-04-24T03:26:57;4.73;;;3.63;;
819;SDS011;392;48.838;2.322;2023-04-24T03:29:41;3.50;;;3.30;;
819;SDS011;392;48.838;2.322;2023-04-24T03:32:10;4.37;;;3.97;;
819;SDS011;392;48.838;2.322;2023-04-24T03:34:38;4.37;;;3.70;;
819;SDS011;392;48.838;2.322;2023-04-24T03:37:06;3.60;;;3.33;;
819;SDS011;392;48.838;2.322;2023-04-24T03:39:38;4.20;;;3.80;;
819;SDS011;392;48.838;2.322;2023-04-24T03:42:06;3.97;;;3.60;;
819;SDS011;392;48.838;2.322;2023-04-24T03:44:45;3.87;;;3.57;;
819;SDS011;392;48.838;2.322;2023-04-24T03:47:12;4.17;;;3.70;;
819;SDS011;392;48.838;2.322;2023-04-24T03:49:39;4.13;;;3.83;;
819;SDS011;392;48.838;2.322;2023-04-24T03:52:08;4.80;;;3.67;;
819;SDS011;392;48.838;2.322;2023-04-24T03:54:35;3.60;;;3.30;;
819;SDS011;392;48.838;2.322;2023-04-24T03:57:05;3.83;;;3.50;;
819;SDS011;392;48.838;2.322;2023-04-24T03:59:36;4.50;;;3.83;;
819;SDS011;392;48.838;2.322;2023-04-24T04:02:10;4.20;;;3.80;;
819;SDS011;392;48.838;2.322;2023-04-24T04:04:38;4.43;;;4.13;;
819;SDS011;392;48.838;2.322;2023-04-24T04:07:05;5.37;;;4.90;;
819;SDS011;392;48.838;2.322;2023-04-24T04:09:33;4.67;;;4.23;;
819;SDS011;392;48.838;2.322;2023-04-24T04:12:00;5.40;;;4.00;;
819;SDS011;392;48.838;2.322;2023-04-24T04:14:29;5.30;;;4.90;;
819;SDS011;392;48.838;2.322;2023-04-24T04:16:57;4.90;;;4.40;;
819;SDS011;392;48.838;2.322;2023-04-24T04:19:25;5.63;;;4.17;;
819;SDS011;392;48.838;2.322;2023-04-24T04:21:52;4.23;;;3.87;;
819;SDS011;392;48.838;2.322;2023-04-24T04:24:41;4.37;;;4.07;;
819;SDS011;392;48.838;2.322;2023-04-24T04:27:09;5.23;;;4.60;;
819;SDS011;392;48.838;2.322;2023-04-24T04:29:54;5.43;;;5.03;;
819;SDS011;392;48.838;2.322;2023-04-24T04:32:22;8.10;;;4.60;;
819;SDS011;392;48.838;2.322;2023-04-24T04:34:50;5.10;;;4.70;;
819;SDS011;392;48.838;2.322;2023-04-24T04:37:18;5.60;;;5.07;;
819;SDS011;392;48.838;2.322;2023-04-24T04:40:09;5.70;;;5.10;;
819;SDS011;392;48.838;2.322;2023-04-24T04:42:45;5.77;;;5.27;;
819;SDS011;392;48.838;2.322;2023-04-24T04:45:15;6.83;;;5.27;;
819;SDS011;392;48.838;2.322;2023-04-24T04:48:03;5.80;;;5.37;;
819;SDS011;392;48.838;2.322;2023-04-24T04:50:31;4.83;;;4.40;;
819;SDS011;392;48.838;2.322;2023-04-24T04:53:04;4.87;;;4.37;;
819;SDS011;392;48.838;2.322;2023-04-24T04:55:36;5.03;;;4.53;;
819;SDS011;392;48.838;2.322;2023-04-24T04:58:17;6.80;;;4.50;;
819;SDS011;392;48.838;2.322;2023-04-24T05:00:49;5.23;;;4.73;;
819;SDS011;392;48.838;2.322;2023-04-24T05:03:28;5.57;;;4.93;;
819;SDS011;392;48.838;2.322;2023-04-24T05:06:01;5.20;;;4.70;;
819;SDS011;392;48.838;2.322;2023-04-24T05:08:33;5.03;;;4.73;;
819;SDS011;392;48.838;2.322;2023-04-24T05:11:05;6.87;;;6.07;;
819;SDS011;392;48.838;2.322;2023-04-24T05:13:32;5.67;;;5.07;;
819;SDS011;392;48.838;2.322;2023-04-24T05:16:02;7.00;;;5.77;;
819;SDS011;392;48.838;2.322;2023-04-24T05:18:30;8.53;;;5.83;;
819;SDS011;392;48.838;2.322;2023-04-24T05:20:58;7.13;;;6.53;;
819;SDS011;392;48.838;2.322;2023-04-24T05:23:25;6.07;;;5.47;;
819;SDS011;392;48.838;2.322;2023-04-24T05:25:54;7.80;;;7.00;;
819;SDS011;392;48.838;2.322;2023-04-24T05:28:21;6.60;;;6.00;;
819;SDS011;392;48.838;2.322;2023-04-24T05:31:03;7.03;;;6.43;;
819;SDS011;392;48.838;2.322;2023-04-24T05:33:31;6.73;;;5.93;;
819;SDS011;392;48.838;2.322;2023-04-24T05:35:59;7.47;;;6.80;;
819;SDS011;392;48.838;2.322;2023-04-24T05:38:26;7.50;;;6.80;;
819;SDS011;392;48.838;2.322;2023-04-24T05:40:54;8.30;;;7.40;;
819;SDS011;392;48.838;2.322;2023-04-24T05:43:21;6.00;;;5.50;;
819;SDS011;392;48.838;2.322;2023-04-24T05:45:49;7.33;;;6.63;;
819;SDS011;392;48.838;2.322;2023-04-24T05:48:18;7.30;;;6.30;;
819;SDS011;392;48.838;2.322;2023-04-24T05:50:47;7.00;;;6.30;;
819;SDS011;392;48.838;2.322;2023-04-24T05:53:14;7.97;;;7.20;;
819;SDS011;392;48.838;2.322;2023-04-24T05:55:42;7.17;;;6.53;;
819;SDS011;392;48.838;2.322;2023-04-24T05:58:09;7.13;;;6.63;;
819;SDS011;392;48.838;2.322;2023-04-24T06:00:37;8.50;;;7.00;;
819;SDS011;392;48.838;2.322;2023-04-24T06:03:07;8.57;;;7.27;;
819;SDS011;392;48.838;2.322;2023-04-24T06:05:36;8.60;;;7.80;;
819;SDS011;392;48.838;2.322;2023-04-24T06:08:03;9.23;;;7.60;;
819;SDS011;392;48.838;2.322;2023-04-24T06:10:35;7.90;;;6.77;;
819;SDS011;392;48.838;2.322;2023-04-24T06:13:03;8.67;;;7.47;;
819;SDS011;392;48.838;2.322;2023-04-24T06:15:33;7.60;;;5.80;;
819;SDS011;392;48.838;2.322;2023-04-24T06:18:09;8.10;;;7.50;;
819;SDS011;392;48.838;2.322;2023-04-24T06:20:40;8.40;;;7.60;;
819;SDS011;392;48.838;2.322;2023-04-24T06:23:08;7.60;;;6.90;;
819;SDS011;392;48.838;2.322;2023-04-24T06:25:36;9.37;;;7.60;;
819;SDS011;392;48.838;2.322;2023-04-24T06:28:04;9.60;;;8.80;;
819;SDS011;392;48.838;2.322;2023-04-24T06:30:31;9.03;;;8.20;;
819;SDS011;392;48.838;2.322;2023-04-24T06:32:58;11.07;;;8.77;;
819;SDS011;392;48.838;2.322;2023-04-24T06:35:26;12.60;;;8.13;;
819;SDS011;392;48.838;2.322;2023-04-24T06:37:54;8.53;;;7.80;;
819;SDS011;392;48.838;2.322;2023-04-24T06:40:22;8.73;;;7.80;;
819;SDS011;392;48.838;2.322;2023-04-24T06:42:49;9.40;;;8.60;;
819;SDS011;392;48.838;2.322;2023-04-24T06:45:17;12.30;;;8.57;;
819;SDS011;392;48.838;2.322;2023-04-24T06:47:44;9.80;;;8.90;;
819;SDS011;392;48.838;2.322;2023-04-24T06:50:11;11.97;;;9.87;;
819;SDS011;392;48.838;2.322;2023-04-24T06:52:39;10.10;;;8.97;;
819;SDS011;392;48.838;2.322;2023-04-24T06:55:08;9.73;;;8.83;;
819;SDS011;392;48.838;2.322;2023-04-24T06:57:36;9.87;;;8.97;;
819;SDS011;392;48.838;2.322;2023-04-24T07:00:04;9.30;;;8.27;;
819;SDS011;392;48.838;2.322;2023-04-24T07:02:34;9.67;;;8.50;;
819;SDS011;392;48.838;2.322;2023-04-24T07:05:02;8.93;;;8.23;;
819;SDS011;392;48.838;2.322;2023-04-24T07:07:32;9.10;;;8.20;;
819;SDS011;392;48.838;2.322;2023-04-24T07:09:59;9.20;;;8.40;;
819;SDS011;392;48.838;2.322;2023-04-24T07:12:30;9.27;;;8.40;;
819;SDS011;392;48.838;2.322;2023-04-24T07:14:58;9.50;;;8.70;;
819;SDS011;392;48.838;2.322;2023-04-24T07:17:26;9.90;;;9.00;;
819;SDS011;392;48.838;2.322;2023-04-24T07:19:53;10.10;;;9.10;;
819;SDS011;392;48.838;2.322;2023-04-24T07:22:21;10.60;;;9.40;;
819;SDS011;392;48.838;2.322;2023-04-24T07:24:48;9.90;;;9.00;;
819;SDS011;392;48.838;2.322;2023-04-24T07:27:16;10.40;;;9.40;;
819;SDS011;392;48.838;2.322;2023-04-24T07:29:44;10.13;;;9.20;;
819;SDS011;392;48.838;2.322;2023-04-24T07:32:11;9.83;;;8.80;;
819;SDS011;392;48.838;2.322;2023-04-24T07:34:39;10.53;;;9.53;;
819;SDS011;392;48.838;2.322;2023-04-24T07:37:06;10.30;;;9.40;;
819;SDS011;392;48.838;2.322;2023-04-24T07:39:34;10.23;;;9.23;;
819;SDS011;392;48.838;2.322;2023-04-24T07:42:01;10.80;;;9.70;;
819;SDS011;392;48.838;2.322;2023-04-24T07:44:28;9.53;;;8.73;;
819;SDS011;392;48.838;2.322;2023-04-24T07:46:58;14.43;;;11.97;;
819;SDS011;392;48.838;2.322;2023-04-24T07:49:26;10.57;;;9.40;;
819;SDS011;392;48.838;2.322;2023-04-24T07:51:53;10.63;;;9.53;;
819;SDS011;392;48.838;2.322;2023-04-24T07:54:20;14.23;;;10.20;;
819;SDS011;392;48.838;2.322;2023-04-24T07:56:48;11.10;;;10.00;;
819;SDS011;392;48.838;2.322;2023-04-24T07:59:15;11.00;;;9.90;;
819;SDS011;392;48.838;2.322;2023-04-24T08:01:43;11.63;;;10.60;;
819;SDS011;392;48.838;2.322;2023-04-24T08:04:12;11.30;;;10.20;;
819;SDS011;392;48.838;2.322;2023-04-24T08:06:39;14.80;;;10.90;;
819;SDS011;392;48.838;2.322;2023-04-24T08:09:06;11.13;;;10.03;;
819;SDS011;392;48.838;2.322;2023-04-24T08:11:34;11.57;;;10.57;;
819;SDS011;392;48.838;2.322;2023-04-24T08:14:01;12.57;;;11.33;;
819;SDS011;392;48.838;2.322;2023-04-24T08:16:28;12.30;;;11.20;;
819;SDS011;392;48.838;2.322;2023-04-24T08:18:56;15.20;;;11.23;;
819;SDS011;392;48.838;2.322;2023-04-24T08:21:25;13.17;;;11.07;;
819;SDS011;392;48.838;2.322;2023-04-24T08:23:52;14.47;;;12.00;;
819;SDS011;392;48.838;2.322;2023-04-24T08:26:20;16.90;;;13.27;;
819;SDS011;392;48.838;2.322;2023-04-24T08:28:47;18.87;;;12.80;;
819;SDS011;392;48.838;2.322;2023-04-24T08:31:14;24.70;;;12.87;;
819;SDS011;392;48.838;2.322;2023-04-24T08:33:41;12.17;;;11.07;;
819;SDS011;392;48.838;2.322;2023-04-24T08:36:11;11.90;;;10.50;;
819;SDS011;392;48.838;2.322;2023-04-24T08:38:39;11.27;;;10.27;;
819;SDS011;392;48.838;2.322;2023-04-24T08:41:08;10.40;;;9.30;;
819;SDS011;392;48.838;2.322;2023-04-24T08:43:36;10.17;;;9.27;;
819;SDS011;392;48.838;2.322;2023-04-24T08:46:05;9.87;;;8.97;;
819;SDS011;392;48.838;2.322;2023-04-24T08:48:32;9.60;;;8.63;;
819;SDS011;392;48.838;2.322;2023-04-24T08:51:00;9.90;;;8.80;;
819;SDS011;392;48.838;2.322;2023-04-24T08:53:29;10.33;;;9.40;;
819;SDS011;392;48.838;2.322;2023-04-24T08:56:00;10.50;;;9.50;;
819;SDS011;392;48.838;2.322;2023-04-24T08:58:28;11.37;;;9.50;;
819;SDS011;392;48.838;2.322;2023-04-24T09:00:57;10.80;;;9.70;;
819;SDS011;392;48.838;2.322;2023-04-24T09:03:26;11.40;;;10.20;;
819;SDS011;392;48.838;2.322;2023-04-24T09:05:55;10.63;;;9.67;;
819;SDS011;392;48.838;2.322;2023-04-24T09:08:24;10.30;;;9.30;;
819;SDS011;392;48.838;2.322;2023-04-24T09:10:52;10.43;;;9.43;;
819;SDS011;392;48.838;2.322;2023-04-24T09:13:21;10.27;;;9.13;;
819;SDS011;392;48.838;2.322;2023-04-24T09:15:49;11.60;;;10.00;;
819;SDS011;392;48.838;2.322;2023-04-24T09:18:16;10.60;;;9.60;;
819;SDS011;392;48.838;2.322;2023-04-24T09:23:31;9.20;;;8.40;;
819;SDS011;392;48.838;2.322;2023-04-24T09:25:59;13.33;;;9.23;;
819;SDS011;392;48.838;2.322;2023-04-24T09:28:32;13.03;;;10.13;;
819;SDS011;392;48.838;2.322;2023-04-24T09:31:06;10.80;;;9.40;;
819;SDS011;392;48.838;2.322;2023-04-24T09:33:35;11.37;;;9.50;;
819;SDS011;392;48.838;2.322;2023-04-24T09:36:03;12.17;;;9.03;;
819;SDS011;392;48.838;2.322;2023-04-24T09:38:32;9.93;;;9.03;;
819;SDS011;392;48.838;2.322;2023-04-24T09:41:01;12.07;;;9.40;;
819;SDS011;392;48.838;2.322;2023-04-24T09:43:29;10.57;;;9.57;;
819;SDS011;392;48.838;2.322;2023-04-24T09:46:04;10.13;;;9.10;;
819;SDS011;392;48.838;2.322;2023-04-24T09:48:36;10.53;;;9.53;;
819;SDS011;392;48.838;2.322;2023-04-24T09:51:05;9.63;;;8.67;;
819;SDS011;392;48.838;2.322;2023-04-24T09:53:35;10.53;;;9.53;;
819;SDS011;392;48.838;2.322;2023-04-24T09:56:07;11.70;;;9.87;;
819;SDS011;392;48.838;2.322;2023-04-24T09:58:37;9.93;;;9.10;;
819;SDS011;392;48.838;2.322;2023-04-24T10:01:04;11.27;;;9.97;;
819;SDS011;392;48.838;2.322;2023-04-24T10:03:32;10.00;;;9.00;;
819;SDS011;392;48.838;2.322;2023-04-24T10:06:00;9.97;;;9.07;;
819;SDS011;392;48.838;2.322;2023-04-24T10:08:34;10.03;;;9.03;;
819;SDS011;392;48.838;2.322;2023-04-24T10:11:01;10.73;;;9.30;;
819;SDS011;392;48.838;2.322;2023-04-24T10:13:29;9.53;;;8.50;;
819;SDS011;392;48.838;2.322;2023-04-24T10:16:00;9.67;;;8.77;;
819;SDS011;392;48.838;2.322;2023-04-24T10:18:29;9.20;;;8.30;;
819;SDS011;392;48.838;2.322;2023-04-24T10:20:57;10.43;;;8.47;;
819;SDS011;392;48.838;2.322;2023-04-24T10:23:26;8.93;;;8.23;;
819;SDS011;392;48.838;2.322;2023-04-24T10:25:55;9.37;;;8.60;;
819;SDS011;392;48.838;2.322;2023-04-24T10:28:23;10.00;;;9.10;;
819;SDS011;392;48.838;2.322;2023-04-24T10:30:52;10.20;;;9.23;;
819;SDS011;392;48.838;2.322;2023-04-24T10:33:22;9.57;;;8.77;;
819;SDS011;392;48.838;2.322;2023-04-24T10:35:50;9.90;;;8.90;;
819;SDS011;392;48.838;2.322;2023-04-24T10:38:19;10.60;;;9.60;;
819;SDS011;392;48.838;2.322;2023-04-24T10:40:51;10.10;;;8.50;;
819;SDS011;392;48.838;2.322;2023-04-24T10:43:23;9.73;;;8.70;;
819;SDS011;392;48.838;2.322;2023-04-24T10:46:00;10.47;;;9.50;;
819;SDS011;392;48.838;2.322;2023-04-24T10:48:31;9.20;;;8.27;;
819;SDS011;392;48.838;2.322;2023-04-24T10:50:59;9.90;;;9.00;;
819;SDS011;392;48.838;2.322;2023-04-24T10:53:28;8.37;;;7.67;;
819;SDS011;392;48.838;2.322;2023-04-24T10:55:57;8.33;;;7.57;;
819;SDS011;392;48.838;2.322;2023-04-24T10:58:35;8.90;;;8.10;;
819;SDS011;392;48.838;2.322;2023-04-24T11:01:05;9.23;;;8.50;;
819;SDS011;392;48.838;2.322;2023-04-24T11:03:34;8.83;;;7.87;;
819;SDS011;392;48.838;2.322;2023-04-24T11:06:03;8.20;;;7.50;;
819;SDS011;392;48.838;2.322;2023-04-24T11:08:37;8.13;;;7.43;;
819;SDS011;392;48.838;2.322;2023-04-24T11:11:09;7.73;;;7.03;;
819;SDS011;392;48.838;2.322;2023-04-24T11:16:32;7.23;;;6.63;;
819;SDS011;392;48.838;2.322;2023-04-24T11:19:06;8.30;;;7.60;;
819;SDS011;392;48.838;2.322;2023-04-24T11:21:41;8.47;;;7.37;;
819;SDS011;392;48.838;2.322;2023-04-24T11:24:23;8.60;;;8.00;;
819;SDS011;392;48.838;2.322;2023-04-24T11:26:53;8.63;;;7.93;;
819;SDS011;392;48.838;2.322;2023-04-24T11:29:22;8.30;;;7.60;;
819;SDS011;392;48.838;2.322;2023-04-24T11:32:14;9.23;;;8.40;;
819;SDS011;392;48.838;2.322;2023-04-24T11:34:48;8.93;;;8.23;;
819;SDS011;392;48.838;2.322;2023-04-24T11:37:17;8.80;;;8.20;;
819;SDS011;392;48.838;2.322;2023-04-24T11:39:45;7.97;;;7.47;;
819;SDS011;392;48.838;2.322;2023-04-24T11:42:13;8.77;;;8.10;;
819;SDS011;392;48.838;2.322;2023-04-24T11:44:42;8.70;;;8.10;;
819;SDS011;392;48.838;2.322;2023-04-24T11:47:10;7.60;;;7.07;;
819;SDS011;392;48.838;2.322;2023-04-24T11:49:37;7.87;;;7.37;;
819;SDS011;392;48.838;2.322;2023-04-24T11:52:06;7.93;;;7.33;;
819;SDS011;392;48.838;2.322;2023-04-24T11:54:34;7.57;;;7.07;;
819;SDS011;392;48.838;2.322;2023-04-24T11:57:03;8.00;;;7.30;;
819;SDS011;392;48.838;2.322;2023-04-24T11:59:35;7.50;;;7.10;;
819;SDS011;392;48.838;2.322;2023-04-24T12:02:03;7.53;;;6.93;;
819;SDS011;392;48.838;2.322;2023-04-24T12:04:38;7.13;;;6.53;;
819;SDS011;392;48.838;2.322;2023-04-24T12:07:08;6.60;;;6.20;;
819;SDS011;392;48.838;2.322;2023-04-24T12:09:42;7.13;;;6.53;;
819;SDS011;392;48.838;2.322;2023-04-24T12:12:10;6.80;;;6.30;;
819;SDS011;392;48.838;2.322;2023-04-24T12:14:46;6.43;;;6.03;;
819;SDS011;392;48.838;2.322;2023-04-24T12:17:15;7.00;;;6.60;;
819;SDS011;392;48.838;2.322;2023-04-24T12:19:46;6.53;;;6.23;;
819;SDS011;392;48.838;2.322;2023-04-24T12:22:15;5.63;;;5.33;;
819;SDS011;392;48.838;2.322;2023-04-24T12:24:56;6.60;;;6.20;;
819;SDS011;392;48.838;2.322;2023-04-24T12:27:26;5.90;;;5.60;;
819;SDS011;392;48.838;2.322;2023-04-24T12:29:56;6.03;;;5.73;;
819;SDS011;392;48.838;2.322;2023-04-24T12:32:24;5.33;;;5.03;;
819;SDS011;392;48.838;2.322;2023-04-24T12:34:52;5.77;;;5.37;;
819;SDS011;392;48.838;2.322;2023-04-24T12:37:23;5.33;;;5.03;;
819;SDS011;392;48.838;2.322;2023-04-24T12:40:01;5.10;;;4.83;;
819;SDS011;392;48.838;2.322;2023-04-24T12:42:33;7.70;;;7.00;;
819;SDS011;392;48.838;2.322;2023-04-24T12:45:02;5.97;;;5.40;;
819;SDS011;392;48.838;2.322;2023-04-24T12:47:33;13.87;;;12.70;;
819;SDS011;392;48.838;2.322;2023-04-24T12:50:01;5.30;;;4.90;;
819;SDS011;392;48.838;2.322;2023-04-24T12:52:30;6.60;;;6.20;;
819;SDS011;392;48.838;2.322;2023-04-24T12:54:58;4.73;;;4.43;;
819;SDS011;392;48.838;2.322;2023-04-24T12:57:27;4.80;;;4.50;;
819;SDS011;392;48.838;2.322;2023-04-24T12:59:57;5.03;;;4.63;;
819;SDS011;392;48.838;2.322;2023-04-24T13:02:26;4.83;;;4.43;;
819;SDS011;392;48.838;2.322;2023-04-24T13:04:56;4.83;;;4.13;;
819;SDS011;392;48.838;2.322;2023-04-24T13:07:23;5.13;;;4.73;;
819;SDS011;392;48.838;2.322;2023-04-24T13:09:53;4.70;;;4.40;;
819;SDS011;392;48.838;2.322;2023-04-24T13:12:21;5.73;;;4.37;;
819;SDS011;392;48.838;2.322;2023-04-24T13:14:50;5.07;;;4.77;;
819;SDS011;392;48.838;2.322;2023-04-24T13:17:18;4.37;;;4.07;;
819;SDS011;392;48.838;2.322;2023-04-24T13:19:45;4.33;;;4.13;;
819;SDS011;392;48.838;2.322;2023-04-24T13:22:13;4.33;;;4.07;;
819;SDS011;392;48.838;2.322;2023-04-24T13:24:40;3.30;;;3.20;;
819;SDS011;392;48.838;2.322;2023-04-24T13:27:09;3.27;;;3.17;;
819;SDS011;392;48.838;2.322;2023-04-24T13:29:36;3.37;;;3.17;;
819;SDS011;392;48.838;2.322;2023-04-24T13:32:03;3.93;;;3.73;;
819;SDS011;392;48.838;2.322;2023-04-24T13:34:31;3.67;;;3.47;;
819;SDS011;392;48.838;2.322;2023-04-24T13:36:59;3.97;;;3.67;;
819;SDS011;392;48.838;2.322;2023-04-24T13:39:28;3.67;;;3.40;;
819;SDS011;392;48.838;2.322;2023-04-24T13:41:56;3.30;;;3.10;;
819;SDS011;392;48.838;2.322;2023-04-24T13:44:25;3.67;;;3.47;;
819;SDS011;392;48.838;2.322;2023-04-24T13:46:54;3.27;;;3.07;;
819;SDS011;392;48.838;2.322;2023-04-24T13:49:23;3.50;;;3.30;;
819;SDS011;392;48.838;2.322;2023-04-24T13:51:51;3.80;;;3.60;;
819;SDS011;392;48.838;2.322;2023-04-24T13:54:20;5.13;;;3.60;;
819;SDS011;392;48.838;2.322;2023-04-24T13:56:48;3.90;;;3.70;;
819;SDS011;392;48.838;2.322;2023-04-24T13:59:16;3.60;;;3.07;;
819;SDS011;392;48.838;2.322;2023-04-24T14:01:44;3.90;;;3.70;;
819;SDS011;392;48.838;2.322;2023-04-24T14:04:12;3.20;;;3.00;;
819;SDS011;392;48.838;2.322;2023-04-24T14:06:40;2.97;;;2.87;;
819;SDS011;392;48.838;2.322;2023-04-24T14:09:07;3.00;;;2.90;;
819;SDS011;392;48.838;2.322;2023-04-24T14:11:34;3.10;;;2.90;;
819;SDS011;392;48.838;2.322;2023-04-24T14:14:02;3.40;;;3.17;;
819;SDS011;392;48.838;2.322;2023-04-24T14:16:30;2.97;;;2.87;;
819;SDS011;392;48.838;2.322;2023-04-24T14:18:58;2.70;;;2.60;;
819;SDS011;392;48.838;2.322;2023-04-24T14:21:26;2.73;;;2.63;;
819;SDS011;392;48.838;2.322;2023-04-24T14:23:53;3.17;;;2.97;;
819;SDS011;392;48.838;2.322;2023-04-24T14:26:20;2.90;;;2.80;;
819;SDS011;392;48.838;2.322;2023-04-24T14:28:48;2.60;;;2.50;;
819;SDS011;392;48.838;2.322;2023-04-24T14:31:15;2.80;;;2.70;;
819;SDS011;392;48.838;2.322;2023-04-24T14:33:43;2.77;;;2.63;;
819;SDS011;392;48.838;2.322;2023-04-24T14:36:12;2.70;;;2.60;;
819;SDS011;392;48.838;2.322;2023-04-24T14:38:39;3.27;;;3.07;;
819;SDS011;392;48.838;2.322;2023-04-24T14:41:07;2.77;;;2.67;;
819;SDS011;392;48.838;2.322;2023-04-24T14:43:37;2.80;;;2.70;;
819;SDS011;392;48.838;2.322;2023-04-24T14:46:04;2.77;;;2.57;;
819;SDS011;392;48.838;2.322;2023-04-24T14:48:32;2.73;;;2.63;;
819;SDS011;392;48.838;2.322;2023-04-24T14:50:59;3.30;;;3.10;;
819;SDS011;392;48.838;2.322;2023-04-24T14:53:27;2.53;;;2.43;;
819;SDS011;392;48.838;2.322;2023-04-24T14:55:55;2.83;;;2.67;;
819;SDS011;392;48.838;2.322;2023-04-24T14:58:22;2.87;;;2.73;;
819;SDS011;392;48.838;2.322;2023-04-24T15:00:49;2.83;;;2.73;;
819;SDS011;392;48.838;2.322;2023-04-24T15:03:19;3.43;;;3.23;;
819;SDS011;392;48.838;2.322;2023-04-24T15:05:48;3.50;;;3.40;;
819;SDS011;392;48.838;2.322;2023-04-24T15:08:15;3.50;;;3.30;;
819;SDS011;392;48.838;2.322;2023-04-24T15:10:44;3.90;;;3.70;;
819;SDS011;392;48.838;2.322;2023-04-24T15:13:11;3.80;;;3.60;;
819;SDS011;392;48.838;2.322;2023-04-24T15:15:39;5.17;;;4.67;;
819;SDS011;392;48.838;2.322;2023-04-24T15:18:07;4.63;;;3.80;;
819;SDS011;392;48.838;2.322;2023-04-24T15:20:36;3.17;;;2.97;;
819;SDS011;392;48.838;2.322;2023-04-24T15:23:07;2.67;;;2.47;;
819;SDS011;392;48.838;2.322;2023-04-24T15:25:35;2.63;;;2.43;;
819;SDS011;392;48.838;2.322;2023-04-24T15:28:05;2.77;;;2.67;;
819;SDS011;392;48.838;2.322;2023-04-24T15:30:32;2.20;;;2.10;;
819;SDS011;392;48.838;2.322;2023-04-24T15:33:00;2.60;;;2.50;;
819;SDS011;392;48.838;2.322;2023-04-24T15:35:27;2.00;;;1.90;;
819;SDS011;392;48.838;2.322;2023-04-24T15:37:55;2.37;;;2.27;;
819;SDS011;392;48.838;2.322;2023-04-24T15:40:22;2.73;;;2.63;;
819;SDS011;392;48.838;2.322;2023-04-24T15:42:49;3.03;;;2.93;;
819;SDS011;392;48.838;2.322;2023-04-24T15:45:18;2.90;;;2.80;;
819;SDS011;392;48.838;2.322;2023-04-24T15:47:45;3.70;;;3.50;;
819;SDS011;392;48.838;2.322;2023-04-24T15:50:13;3.07;;;2.87;;
819;SDS011;392;48.838;2.322;2023-04-24T15:52:41;3.10;;;3.00;;
819;SDS011;392;48.838;2.322;2023-04-24T15:55:09;3.37;;;3.27;;
819;SDS011;392;48.838;2.322;2023-04-24T15:57:36;3.20;;;3.00;;
819;SDS011;392;48.838;2.322;2023-04-24T16:00:04;3.53;;;3.33;;